createdAt,value
2023-02-11T00:04:12.610Z,60.20
2023-02-11T00:09:12.546Z,60.23
2023-02-11T00:14:12.478Z,60.25
2023-02-11T00:19:12.384Z,60.28
2023-02-11T00:24:12.347Z,60.31
2023-02-11T00:29:12.310Z,60.32
2023-02-11T00:34:12.236Z,60.36
2023-02-11T00:39:12.140Z,60.38
2023-02-11T00:44:12.123Z,60.41
2023-02-11T00:49:12.021Z,60.43
2023-02-11T00:54:11.979Z,60.45
2023-02-11T00:59:11.866Z,60.47
2023-02-11T01:04:11.848Z,60.48
2023-02-11T01:09:29.011Z,60.13
2023-02-11T01:14:21.405Z,60.48
2023-02-11T01:19:21.336Z,60.66
2023-02-11T01:24:21.262Z,60.73
2023-02-11T01:29:21.213Z,60.74
2023-02-11T01:34:21.138Z,60.78
2023-02-11T01:39:21.089Z,60.82
2023-02-11T01:44:20.990Z,60.87
2023-02-11T01:49:21.006Z,60.94
2023-02-11T01:54:20.872Z,61.01
2023-02-11T01:59:20.837Z,61.08
2023-02-11T02:04:20.761Z,61.15
2023-02-11T02:09:20.716Z,61.15
2023-02-11T02:14:20.613Z,61.21
2023-02-11T02:19:20.612Z,61.31
2023-02-11T02:24:20.485Z,61.40
2023-02-11T02:29:20.437Z,61.48
2023-02-11T02:34:20.355Z,61.51
2023-02-11T02:39:20.331Z,61.51
2023-02-11T02:44:20.221Z,61.57
2023-02-11T02:49:20.187Z,61.60
2023-02-11T02:54:20.093Z,61.65
2023-02-11T02:59:20.080Z,61.68
2023-02-11T03:04:19.988Z,61.74
2023-02-11T03:09:20.582Z,61.78
2023-02-11T03:14:19.852Z,61.83
2023-02-11T03:19:19.810Z,61.88
2023-02-11T03:24:19.714Z,61.89
2023-02-11T03:29:19.641Z,61.90
2023-02-11T03:34:19.583Z,61.98
2023-02-11T03:39:19.550Z,62.03
2023-02-11T03:44:19.497Z,62.10
2023-02-11T03:49:19.419Z,62.22
2023-02-11T03:54:19.339Z,62.25
2023-02-11T03:59:19.335Z,62.31
2023-02-11T04:04:19.199Z,62.40
2023-02-11T04:09:19.139Z,62.48
2023-02-11T04:14:19.091Z,62.51
2023-02-11T04:19:19.029Z,62.55
2023-02-11T04:24:18.949Z,62.61
2023-02-11T04:29:18.891Z,62.62
2023-02-11T04:34:18.821Z,62.62
2023-02-11T04:39:18.772Z,62.62
2023-02-11T04:44:18.673Z,62.62
2023-02-11T04:49:18.653Z,62.64
2023-02-11T04:54:18.558Z,62.68
2023-02-11T04:59:18.519Z,62.69
2023-02-11T05:04:18.480Z,62.74
2023-02-11T05:09:18.402Z,62.79
2023-02-11T05:14:18.302Z,62.90
2023-02-11T05:19:34.311Z,62.57
2023-02-11T05:24:26.720Z,62.97
2023-02-11T05:29:26.659Z,63.19
2023-02-11T05:34:26.593Z,63.26
2023-02-11T05:39:26.512Z,63.28
2023-02-11T05:44:26.456Z,63.30
2023-02-11T05:49:26.404Z,63.35
2023-02-11T05:54:26.305Z,63.40
2023-02-11T05:59:26.976Z,63.41
2023-02-11T06:04:26.167Z,63.38
2023-02-11T06:09:26.148Z,63.35
2023-02-11T06:14:26.054Z,63.35
2023-02-11T06:19:25.991Z,63.40
2023-02-11T06:24:48.113Z,63.56
2023-02-11T06:29:26.884Z,63.54
2023-02-11T06:34:25.803Z,63.58
2023-02-11T06:39:25.744Z,63.59
2023-02-11T06:44:25.682Z,63.57
2023-02-11T06:49:25.649Z,63.59
2023-02-11T06:54:25.638Z,63.62
2023-02-11T06:59:25.516Z,63.69
2023-02-11T07:04:25.440Z,63.72
2023-02-11T07:09:25.370Z,63.66
2023-02-11T07:14:25.311Z,63.58
2023-02-11T07:19:25.256Z,63.49
2023-02-11T07:24:25.202Z,63.40
2023-02-11T07:29:25.118Z,63.33
2023-02-11T07:34:25.144Z,63.26
2023-02-11T07:39:24.999Z,63.16
2023-02-11T07:44:24.878Z,63.09
2023-02-11T07:49:24.847Z,62.99
2023-02-11T07:54:24.758Z,62.87
2023-02-11T07:59:24.742Z,62.83
2023-02-11T08:04:24.647Z,62.70
2023-02-11T08:09:24.568Z,62.54
2023-02-11T08:14:24.545Z,62.49
2023-02-11T08:19:24.466Z,62.44
2023-02-11T08:24:24.394Z,62.44
2023-02-11T08:29:24.314Z,62.53
2023-02-11T08:34:24.260Z,62.65
2023-02-11T08:39:24.214Z,62.71
2023-02-11T08:44:24.131Z,62.74
2023-02-11T08:49:24.072Z,62.71
2023-02-11T08:54:23.999Z,62.62
2023-02-11T08:59:23.926Z,62.51
2023-02-11T09:04:23.859Z,62.41
2023-02-11T09:09:23.815Z,62.27
2023-02-11T09:14:23.733Z,62.10
2023-02-11T09:19:23.737Z,61.98
2023-02-11T09:24:23.610Z,61.88
2023-02-11T09:29:23.558Z,61.89
2023-02-11T09:34:23.503Z,61.76
2023-02-11T09:39:23.474Z,61.51
2023-02-11T09:44:23.390Z,61.51
2023-02-11T09:49:23.281Z,61.46
2023-02-11T09:54:23.262Z,61.55
2023-02-11T09:59:23.163Z,61.78
2023-02-11T10:04:23.166Z,61.96
2023-02-11T10:09:23.043Z,62.05
2023-02-11T10:14:23.081Z,62.14
2023-02-11T10:19:22.912Z,62.14
2023-02-11T10:24:22.837Z,62.15
2023-02-11T10:29:22.778Z,62.07
2023-02-11T10:34:22.716Z,62.01
2023-02-11T10:39:22.638Z,61.95
2023-02-11T10:44:22.591Z,61.76
2023-02-11T10:49:22.513Z,61.52
2023-02-11T10:54:22.433Z,61.28
2023-02-11T10:59:22.411Z,61.15
2023-02-11T11:04:22.389Z,61.04
2023-02-11T11:09:22.258Z,61.06
2023-02-11T11:14:22.169Z,61.08
2023-02-11T11:19:22.284Z,61.23
2023-02-11T11:24:22.091Z,61.35
2023-02-11T11:29:22.058Z,61.50
2023-02-11T11:34:21.913Z,61.49
2023-02-11T11:39:21.876Z,61.43
2023-02-11T11:44:21.788Z,61.40
2023-02-11T11:49:21.731Z,61.45
2023-02-11T11:54:21.649Z,61.52
2023-02-11T11:59:21.590Z,61.43
2023-02-11T12:04:21.498Z,61.23
2023-02-11T12:09:22.507Z,61.41
2023-02-11T12:14:21.480Z,61.54
2023-02-11T12:19:21.364Z,61.71
2023-02-11T12:24:21.216Z,61.81
2023-02-11T12:29:21.204Z,61.95
2023-02-11T12:34:21.129Z,62.03
2023-02-11T12:39:21.073Z,62.12
2023-02-11T12:44:20.982Z,62.21
2023-02-11T12:49:20.918Z,62.24
2023-02-11T12:54:20.873Z,62.31
2023-02-11T12:59:20.814Z,62.36
2023-02-11T13:04:20.749Z,62.41
2023-02-11T13:09:20.716Z,62.37
2023-02-11T13:14:20.619Z,62.34
2023-02-11T13:19:20.526Z,62.36
2023-02-11T13:24:20.477Z,62.40
2023-02-11T13:29:20.415Z,62.47
2023-02-11T13:34:20.315Z,62.61
2023-02-11T13:39:20.271Z,62.66
2023-02-11T13:44:20.200Z,62.79
2023-02-11T13:49:20.129Z,62.90
2023-02-11T13:54:20.105Z,62.95
2023-02-11T13:59:20.017Z,62.98
2023-02-11T14:04:19.921Z,63.02
2023-02-11T14:09:19.878Z,63.00
2023-02-11T14:14:19.813Z,63.08
2023-02-11T14:19:19.774Z,63.18
2023-02-11T14:24:19.656Z,63.28
2023-02-11T14:29:19.616Z,63.38
2023-02-11T14:34:19.596Z,63.49
2023-02-11T14:39:19.525Z,63.58
2023-02-11T14:44:19.466Z,63.62
2023-02-11T14:49:19.367Z,63.59
2023-02-11T14:54:19.239Z,63.63
2023-02-11T14:59:19.258Z,63.63
2023-02-11T15:04:19.139Z,63.74
2023-02-11T15:09:19.086Z,63.84
2023-02-11T15:14:19.010Z,63.97
2023-02-11T15:19:18.997Z,64.05
2023-02-11T15:24:18.888Z,64.18
2023-02-11T15:29:18.937Z,64.25
2023-02-11T15:34:18.911Z,64.35
2023-02-11T15:39:18.687Z,64.45
2023-02-11T15:44:18.679Z,64.50
2023-02-11T15:49:18.557Z,64.54
2023-02-11T15:54:18.473Z,64.61
2023-02-11T15:59:18.426Z,64.66
2023-02-11T16:04:18.381Z,64.75
2023-02-11T16:09:18.299Z,64.84
2023-02-11T16:14:18.211Z,64.97
2023-02-11T16:19:18.162Z,65.06
2023-02-11T16:24:18.118Z,65.14
2023-02-11T16:29:18.053Z,65.22
2023-02-11T16:34:17.990Z,65.31
2023-02-11T16:39:17.911Z,65.38
2023-02-11T16:44:17.837Z,65.45
2023-02-11T16:49:17.917Z,65.49
2023-02-11T16:54:17.699Z,65.53
2023-02-11T16:59:17.633Z,65.59
2023-02-11T17:04:17.671Z,65.62
2023-02-11T17:09:17.521Z,65.66
2023-02-11T17:14:17.435Z,65.68
2023-02-11T17:19:17.368Z,65.73
2023-02-11T17:24:17.322Z,65.74
2023-02-11T17:29:17.233Z,65.77
2023-02-11T17:34:17.149Z,65.82
2023-02-11T17:39:17.118Z,65.88
2023-02-11T17:44:17.007Z,65.93
2023-02-11T17:49:16.990Z,65.96
2023-02-11T17:54:16.894Z,65.97
2023-02-11T17:59:16.855Z,66.00
2023-02-11T18:04:16.887Z,66.05
2023-02-11T18:09:16.745Z,66.08
2023-02-11T18:14:16.641Z,66.12
2023-02-11T18:19:16.586Z,66.13
2023-02-11T18:24:16.507Z,66.16
2023-02-11T18:29:16.501Z,66.19
2023-02-11T18:34:16.373Z,66.20
2023-02-11T18:39:16.345Z,66.22
2023-02-11T18:44:16.239Z,66.25
2023-02-11T18:49:16.211Z,66.29
2023-02-11T18:54:16.268Z,66.31
2023-02-11T18:59:16.061Z,66.35
2023-02-11T19:04:16.064Z,66.38
2023-02-11T19:09:15.913Z,66.43
2023-02-11T19:14:15.853Z,66.45
2023-02-11T19:19:15.789Z,66.47
2023-02-11T19:24:15.703Z,66.51
2023-02-11T19:29:15.662Z,66.57
2023-02-11T19:34:15.577Z,66.60
2023-02-11T19:39:15.531Z,66.65
2023-02-11T19:44:15.457Z,66.68
2023-02-11T19:49:15.430Z,66.68
2023-02-11T19:54:15.301Z,66.70
2023-02-11T19:59:15.260Z,66.74
2023-02-11T20:04:15.169Z,66.76
2023-02-11T20:09:15.137Z,66.77
2023-02-11T20:14:15.070Z,66.78
2023-02-11T20:19:14.997Z,66.82
2023-02-11T20:24:14.943Z,66.84
2023-02-11T20:29:14.869Z,66.88
2023-02-11T20:34:15.004Z,66.92
2023-02-11T20:39:15.099Z,66.97
2023-02-11T20:44:14.718Z,67.00
2023-02-11T20:49:14.560Z,67.06
2023-02-11T20:54:14.533Z,67.08
2023-02-11T20:59:14.479Z,67.10
2023-02-11T21:04:14.469Z,67.13
2023-02-11T21:09:14.397Z,67.16
2023-02-11T21:14:14.311Z,67.16
2023-02-11T21:19:14.215Z,67.20
2023-02-11T21:24:14.176Z,67.23
2023-02-11T21:29:14.083Z,67.28
2023-02-11T21:34:13.967Z,67.31
2023-02-11T21:39:13.935Z,67.34
2023-02-11T21:44:13.842Z,67.37
2023-02-11T21:49:13.797Z,67.39
2023-02-11T21:54:13.728Z,67.41
2023-02-11T21:59:13.676Z,67.44
2023-02-11T22:04:13.600Z,67.46
2023-02-11T22:09:13.551Z,67.52
2023-02-11T22:14:13.463Z,67.54
2023-02-11T22:19:13.409Z,67.56
2023-02-11T22:24:13.337Z,67.56
2023-02-11T22:29:13.344Z,67.57
2023-02-11T22:34:13.180Z,67.62
2023-02-11T22:39:13.142Z,67.66
2023-02-11T22:44:13.196Z,67.66
2023-02-11T22:49:12.993Z,67.70
2023-02-11T22:54:12.913Z,67.70
2023-02-11T22:59:12.854Z,67.71
2023-02-11T23:04:12.807Z,67.74
2023-02-11T23:09:12.717Z,67.81
2023-02-11T23:14:12.678Z,67.87
2023-02-11T23:19:12.616Z,67.90
2023-02-11T23:24:12.528Z,67.92
2023-02-11T23:29:12.462Z,67.95
2023-02-11T23:34:12.387Z,67.95
2023-02-11T23:39:12.346Z,67.93
2023-02-11T23:44:12.236Z,67.94
2023-02-11T23:49:12.216Z,67.94
2023-02-11T23:54:12.131Z,67.95
2023-02-11T23:59:12.078Z,67.96
